Terminal Aerodrome Forecast
Issued by NWS Wilmington, OH

Current Version | Previous Version | Graphics & Text | Print | Product List | Glossary On
Versions: 1 2 3 4 5 6 7 8 9 10 11 12 13 14 15 16 17 18 19 20 21 22 23 24
000
FTUS41 KILN 231700
TAFCVG
TAF
KCVG 231739Z 2318/2424 VRB05KT P6SM BKN090
      TEMPO 2318/2319 5SM -SHRA BKN040
     FM232000 32009KT P6SM BKN100
     FM240000 02008KT P6SM BKN060
     FM240500 02009KT P6SM SCT100
     FM241400 02010G16KT P6SM SCT035
      TEMPO 2417/2421 BKN035=

USA.gov is the U.S. government's official web portal to all federal, state and local government web resources and services.